KELA

Eagle Lake Airport

Eagle Lake, Texas, USA
METAR KELA 210355Z AUTO 18007KT 10SM CLR 28/25 A3001 RMK AO2 T02830250
Observed Flight Rules
Aug-21 @ 03:55 UTC (16 minutes ago) Visual Flight Rules
Wind Visibility Clouds
180° at 7 knots 10 miles
  • Clear skies
Temperatures Readings
Current 28°C / 82°F
Dewpoint 25°C / 77°F
Humidity 84%
Altimeter 30.01" Hg
Pressure 1016 hPa
Elevation 56
METAR KELA 210355Z AUTO 18007KT 10SM CLR 28/25 A3001 RMK AO2 T02830250
Observed Flight Rules
Aug-21 @ 03:55 UTC
(16 minutes ago)
VFR
Wind Visibility
180° at 7 knots 10 miles
Clouds
  • Clear skies
Temperature Dewpoint
28°C / 82°F 25°C / 77°F
Humidity Altimeter Pressure
84% 30.01" Hg 1016 hPa